sensor_id;sensor_type;location;lat;lon;timestamp;pressure;altitude;pressure_sealevel;temperature;humidity
250;BME280;109;19.806;-70.704;2023-09-19T00:00:17;101191.16;;;30.93;44.48
250;BME280;109;19.806;-70.704;2023-09-19T00:02:51;101195.91;;;30.71;44.82
250;BME280;109;19.806;-70.704;2023-09-19T00:05:26;101190.06;;;30.66;44.87
250;BME280;109;19.806;-70.704;2023-09-19T00:07:55;101189.28;;;30.84;44.84
250;BME280;109;19.806;-70.704;2023-09-19T00:10:32;101199.63;;;30.90;44.30
250;BME280;109;19.806;-70.704;2023-09-19T00:13:02;101201.94;;;31.31;43.75
250;BME280;109;19.806;-70.704;2023-09-19T00:15:44;101197.19;;;30.87;44.08
250;BME280;109;19.806;-70.704;2023-09-19T00:18:23;101204.69;;;30.65;44.52
250;BME280;109;19.806;-70.704;2023-09-19T00:21:00;101199.09;;;30.67;44.33
250;BME280;109;19.806;-70.704;2023-09-19T00:23:27;101201.22;;;30.73;44.53
250;BME280;109;19.806;-70.704;2023-09-19T00:26:01;101198.34;;;30.74;44.53
250;BME280;109;19.806;-70.704;2023-09-19T00:28:27;101201.16;;;31.12;43.97
250;BME280;109;19.806;-70.704;2023-09-19T00:31:02;101210.94;;;31.04;44.29
250;BME280;109;19.806;-70.704;2023-09-19T00:33:28;101215.56;;;31.41;44.11
250;BME280;109;19.806;-70.704;2023-09-19T00:36:04;101225.47;;;31.32;44.18
250;BME280;109;19.806;-70.704;2023-09-19T00:38:31;101220.25;;;31.02;43.93
250;BME280;109;19.806;-70.704;2023-09-19T00:41:04;101230.78;;;31.43;43.19
250;BME280;109;19.806;-70.704;2023-09-19T00:43:52;101235.56;;;31.13;43.55
250;BME280;109;19.806;-70.704;2023-09-19T00:46:26;101240.78;;;30.87;43.97
250;BME280;109;19.806;-70.704;2023-09-19T00:48:53;101235.63;;;30.74;44.19
250;BME280;109;19.806;-70.704;2023-09-19T00:51:26;101234.19;;;30.80;44.54
250;BME280;109;19.806;-70.704;2023-09-19T00:53:54;101236.28;;;30.95;44.07
250;BME280;109;19.806;-70.704;2023-09-19T00:56:27;101233.81;;;31.21;43.87
250;BME280;109;19.806;-70.704;2023-09-19T00:58:54;101229.94;;;31.24;43.94
250;BME280;109;19.806;-70.704;2023-09-19T01:01:29;101240.41;;;31.28;43.35
250;BME280;109;19.806;-70.704;2023-09-19T01:03:56;101241.78;;;31.05;43.66
250;BME280;109;19.806;-70.704;2023-09-19T01:06:30;101241.34;;;31.00;43.29
250;BME280;109;19.806;-70.704;2023-09-19T01:08:57;101254.22;;;31.17;43.72
250;BME280;109;19.806;-70.704;2023-09-19T01:11:37;101268.13;;;31.14;43.23
250;BME280;109;19.806;-70.704;2023-09-19T01:17:17;101258.47;;;31.39;43.60
250;BME280;109;19.806;-70.704;2023-09-19T01:29:11;101253.41;;;31.54;42.37
250;BME280;109;19.806;-70.704;2023-09-19T01:31:47;101258.09;;;31.61;42.68
250;BME280;109;19.806;-70.704;2023-09-19T01:34:15;101259.75;;;31.72;43.19
250;BME280;109;19.806;-70.704;2023-09-19T01:36:48;101262.72;;;31.51;43.36
250;BME280;109;19.806;-70.704;2023-09-19T01:39:14;101263.19;;;31.37;43.62
250;BME280;109;19.806;-70.704;2023-09-19T01:42:24;101260.88;;;31.52;43.87
250;BME280;109;19.806;-70.704;2023-09-19T01:47:37;101268.75;;;31.55;43.36
250;BME280;109;19.806;-70.704;2023-09-19T01:50:30;101268.94;;;31.43;43.70
250;BME280;109;19.806;-70.704;2023-09-19T01:53:36;101279.81;;;31.34;43.53
250;BME280;109;19.806;-70.704;2023-09-19T01:56:24;101273.97;;;31.29;43.33
250;BME280;109;19.806;-70.704;2023-09-19T01:59:04;101276.47;;;30.84;43.71
250;BME280;109;19.806;-70.704;2023-09-19T02:01:40;101273.31;;;31.17;43.40
250;BME280;109;19.806;-70.704;2023-09-19T02:04:18;101263.25;;;31.18;43.20
250;BME280;109;19.806;-70.704;2023-09-19T02:06:45;101272.16;;;31.20;43.55
250;BME280;109;19.806;-70.704;2023-09-19T02:09:20;101274.69;;;31.31;43.25
250;BME280;109;19.806;-70.704;2023-09-19T02:11:46;101276.28;;;31.24;42.88
250;BME280;109;19.806;-70.704;2023-09-19T02:14:19;101279.63;;;31.18;43.27
250;BME280;109;19.806;-70.704;2023-09-19T02:16:46;101281.19;;;31.11;42.70
250;BME280;109;19.806;-70.704;2023-09-19T02:19:27;101285.22;;;30.97;42.92
250;BME280;109;19.806;-70.704;2023-09-19T02:22:00;101286.78;;;31.19;42.46
250;BME280;109;19.806;-70.704;2023-09-19T02:24:40;101278.63;;;30.99;43.12
250;BME280;109;19.806;-70.704;2023-09-19T02:27:06;101283.78;;;31.12;42.66
250;BME280;109;19.806;-70.704;2023-09-19T02:29:40;101295.13;;;30.98;42.90
250;BME280;109;19.806;-70.704;2023-09-19T02:32:06;101296.13;;;31.16;42.82
250;BME280;109;19.806;-70.704;2023-09-19T02:34:40;101293.84;;;31.02;42.73
250;BME280;109;19.806;-70.704;2023-09-19T02:37:08;101284.75;;;31.21;42.56
250;BME280;109;19.806;-70.704;2023-09-19T02:39:45;101290.38;;;31.19;42.25
250;BME280;109;19.806;-70.704;2023-09-19T02:42:11;101284.22;;;31.17;42.81
250;BME280;109;19.806;-70.704;2023-09-19T02:44:45;101294.53;;;31.14;42.18
250;BME280;109;19.806;-70.704;2023-09-19T02:47:25;101288.22;;;31.13;42.04
250;BME280;109;19.806;-70.704;2023-09-19T02:49:52;101283.06;;;31.10;42.15
250;BME280;109;19.806;-70.704;2023-09-19T02:52:25;101282.22;;;31.00;42.73
250;BME280;109;19.806;-70.704;2023-09-19T02:54:51;101284.94;;;31.00;42.67
250;BME280;109;19.806;-70.704;2023-09-19T02:57:24;101278.31;;;31.12;42.37
250;BME280;109;19.806;-70.704;2023-09-19T02:59:50;101279.63;;;31.08;42.31
250;BME280;109;19.806;-70.704;2023-09-19T03:02:24;101277.63;;;30.71;43.20
250;BME280;109;19.806;-70.704;2023-09-19T03:04:50;101272.75;;;30.85;42.74
250;BME280;109;19.806;-70.704;2023-09-19T03:07:24;101265.72;;;30.72;42.84
250;BME280;109;19.806;-70.704;2023-09-19T03:09:51;101270.03;;;30.85;43.08
250;BME280;109;19.806;-70.704;2023-09-19T03:12:26;101269.47;;;31.00;42.94
250;BME280;109;19.806;-70.704;2023-09-19T03:14:53;101268.03;;;30.96;42.76
250;BME280;109;19.806;-70.704;2023-09-19T03:17:26;101270.59;;;30.98;42.48
250;BME280;109;19.806;-70.704;2023-09-19T03:20:00;101268.31;;;30.93;42.62
250;BME280;109;19.806;-70.704;2023-09-19T03:22:33;101263.00;;;30.92;42.56
250;BME280;109;19.806;-70.704;2023-09-19T03:25:00;101267.16;;;31.05;42.69
250;BME280;109;19.806;-70.704;2023-09-19T03:27:38;101267.88;;;30.98;42.83
250;BME280;109;19.806;-70.704;2023-09-19T03:30:12;101266.59;;;30.92;42.39
250;BME280;109;19.806;-70.704;2023-09-19T03:32:45;101266.03;;;30.98;42.75
250;BME280;109;19.806;-70.704;2023-09-19T03:35:19;101261.84;;;30.85;42.88
250;BME280;109;19.806;-70.704;2023-09-19T03:37:47;101254.69;;;30.93;42.71
250;BME280;109;19.806;-70.704;2023-09-19T03:40:20;101264.59;;;31.04;42.82
250;BME280;109;19.806;-70.704;2023-09-19T03:42:48;101271.19;;;31.01;42.78
250;BME280;109;19.806;-70.704;2023-09-19T03:45:22;101271.47;;;30.89;42.96
250;BME280;109;19.806;-70.704;2023-09-19T03:47:52;101266.28;;;30.95;42.94
250;BME280;109;19.806;-70.704;2023-09-19T03:50:25;101267.00;;;30.88;42.73
250;BME280;109;19.806;-70.704;2023-09-19T03:52:56;101262.69;;;30.95;43.15
250;BME280;109;19.806;-70.704;2023-09-19T03:55:30;101259.69;;;30.98;42.96
250;BME280;109;19.806;-70.704;2023-09-19T03:57:57;101258.84;;;30.88;42.82
250;BME280;109;19.806;-70.704;2023-09-19T04:00:30;101257.72;;;30.81;43.20
250;BME280;109;19.806;-70.704;2023-09-19T04:02:58;101260.72;;;30.97;42.76
250;BME280;109;19.806;-70.704;2023-09-19T04:05:33;101261.84;;;31.04;42.91
250;BME280;109;19.806;-70.704;2023-09-19T04:08:08;101261.69;;;30.96;42.91
250;BME280;109;19.806;-70.704;2023-09-19T04:10:44;101258.28;;;31.03;43.08
250;BME280;109;19.806;-70.704;2023-09-19T04:13:18;101257.56;;;30.92;42.85
250;BME280;109;19.806;-70.704;2023-09-19T04:15:44;101237.91;;;30.88;43.05
250;BME280;109;19.806;-70.704;2023-09-19T04:18:19;101230.31;;;30.92;42.92
250;BME280;109;19.806;-70.704;2023-09-19T04:20:50;101225.53;;;30.94;43.00
250;BME280;109;19.806;-70.704;2023-09-19T04:23:23;101224.72;;;30.93;42.99
250;BME280;109;19.806;-70.704;2023-09-19T04:25:50;101215.50;;;30.94;43.07
250;BME280;109;19.806;-70.704;2023-09-19T04:28:23;101225.84;;;30.91;42.91
250;BME280;109;19.806;-70.704;2023-09-19T04:30:50;101230.03;;;30.76;43.10
250;BME280;109;19.806;-70.704;2023-09-19T04:33:24;101227.56;;;30.82;43.06
250;BME280;109;19.806;-70.704;2023-09-19T04:35:51;101234.59;;;30.85;42.74
250;BME280;109;19.806;-70.704;2023-09-19T04:38:24;101228.75;;;30.70;42.99
250;BME280;109;19.806;-70.704;2023-09-19T04:40:57;101230.47;;;30.71;43.05
250;BME280;109;19.806;-70.704;2023-09-19T04:43:31;101231.31;;;30.81;42.69
250;BME280;109;19.806;-70.704;2023-09-19T04:46:18;101226.72;;;30.82;42.61
250;BME280;109;19.806;-70.704;2023-09-19T04:48:51;101214.94;;;30.81;42.84
250;BME280;109;19.806;-70.704;2023-09-19T04:51:17;101223.00;;;30.73;42.55
250;BME280;109;19.806;-70.704;2023-09-19T04:53:52;101216.44;;;30.66;42.86
250;BME280;109;19.806;-70.704;2023-09-19T04:56:18;101221.59;;;30.59;42.65
250;BME280;109;19.806;-70.704;2023-09-19T04:58:54;101216.41;;;30.76;42.65
250;BME280;109;19.806;-70.704;2023-09-19T05:01:20;101203.09;;;30.72;42.74
250;BME280;109;19.806;-70.704;2023-09-19T05:04:03;101207.25;;;30.77;42.66
250;BME280;109;19.806;-70.704;2023-09-19T05:06:37;101199.94;;;30.77;42.62
250;BME280;109;19.806;-70.704;2023-09-19T05:09:03;101202.06;;;30.83;42.76
250;BME280;109;19.806;-70.704;2023-09-19T05:11:38;101195.47;;;30.86;42.40
250;BME280;109;19.806;-70.704;2023-09-19T05:14:04;101200.63;;;30.89;42.61
250;BME280;109;19.806;-70.704;2023-09-19T05:16:37;101200.50;;;30.81;42.31
250;BME280;109;19.806;-70.704;2023-09-19T05:19:03;101191.47;;;30.80;42.41
250;BME280;109;19.806;-70.704;2023-09-19T05:21:36;101183.31;;;30.80;42.50
250;BME280;109;19.806;-70.704;2023-09-19T05:24:05;101194.75;;;30.84;42.30
250;BME280;109;19.806;-70.704;2023-09-19T05:26:42;101195.31;;;30.87;42.13
250;BME280;109;19.806;-70.704;2023-09-19T05:29:08;101196.91;;;30.80;42.46
250;BME280;109;19.806;-70.704;2023-09-19T05:31:41;101195.19;;;30.79;42.45
250;BME280;109;19.806;-70.704;2023-09-19T05:34:08;101192.47;;;30.69;42.22
250;BME280;109;19.806;-70.704;2023-09-19T05:36:42;101177.44;;;30.65;42.30
250;BME280;109;19.806;-70.704;2023-09-19T05:39:09;101179.72;;;30.80;42.42
250;BME280;109;19.806;-70.704;2023-09-19T05:41:42;101171.53;;;30.80;42.39
250;BME280;109;19.806;-70.704;2023-09-19T05:44:29;101169.28;;;30.65;42.15
250;BME280;109;19.806;-70.704;2023-09-19T05:47:03;101164.91;;;30.82;42.36
250;BME280;109;19.806;-70.704;2023-09-19T05:49:30;101167.50;;;30.84;42.00
250;BME280;109;19.806;-70.704;2023-09-19T05:52:04;101158.63;;;30.72;42.17
250;BME280;109;19.806;-70.704;2023-09-19T05:54:31;101153.47;;;30.69;41.98
250;BME280;109;19.806;-70.704;2023-09-19T05:57:05;101137.84;;;30.81;42.45
250;BME280;109;19.806;-70.704;2023-09-19T05:59:38;101142.75;;;30.58;42.32
250;BME280;109;19.806;-70.704;2023-09-19T06:02:12;101148.19;;;30.58;42.51
250;BME280;109;19.806;-70.704;2023-09-19T06:04:39;101150.91;;;30.48;42.83
250;BME280;109;19.806;-70.704;2023-09-19T06:07:24;101148.75;;;30.42;43.19
250;BME280;109;19.806;-70.704;2023-09-19T06:10:15;101151.97;;;30.28;42.92
250;BME280;109;19.806;-70.704;2023-09-19T06:12:48;101154.06;;;30.44;42.76
250;BME280;109;19.806;-70.704;2023-09-19T06:15:15;101155.94;;;30.43;43.09
250;BME280;109;19.806;-70.704;2023-09-19T06:17:53;101157.38;;;30.37;42.98
250;BME280;109;19.806;-70.704;2023-09-19T06:20:30;101155.94;;;30.43;42.86
250;BME280;109;19.806;-70.704;2023-09-19T06:22:57;101160.81;;;30.49;43.04
250;BME280;109;19.806;-70.704;2023-09-19T06:25:30;101162.81;;;30.47;42.91
250;BME280;109;19.806;-70.704;2023-09-19T06:27:57;101172.13;;;30.54;42.81
250;BME280;109;19.806;-70.704;2023-09-19T06:30:30;101160.25;;;30.55;42.46
250;BME280;109;19.806;-70.704;2023-09-19T06:32:58;101163.09;;;30.54;42.48
250;BME280;109;19.806;-70.704;2023-09-19T06:35:33;101156.25;;;30.40;42.42
250;BME280;109;19.806;-70.704;2023-09-19T06:38:03;101164.53;;;30.48;42.40
250;BME280;109;19.806;-70.704;2023-09-19T06:40:36;101168.56;;;30.25;42.65
250;BME280;109;19.806;-70.704;2023-09-19T06:43:04;101157.66;;;30.44;42.57
250;BME280;109;19.806;-70.704;2023-09-19T06:45:38;101146.22;;;30.41;42.74
250;BME280;109;19.806;-70.704;2023-09-19T06:48:18;101150.81;;;30.40;42.75
250;BME280;109;19.806;-70.704;2023-09-19T06:50:44;101153.22;;;30.43;42.54
250;BME280;109;19.806;-70.704;2023-09-19T06:53:17;101147.06;;;30.41;42.89
250;BME280;109;19.806;-70.704;2023-09-19T06:55:43;101146.75;;;30.44;42.53
250;BME280;109;19.806;-70.704;2023-09-19T06:58:25;101145.91;;;30.34;42.89
250;BME280;109;19.806;-70.704;2023-09-19T07:00:58;101141.06;;;30.18;43.04
250;BME280;109;19.806;-70.704;2023-09-19T07:03:24;101131.75;;;30.21;43.11
250;BME280;109;19.806;-70.704;2023-09-19T07:05:59;101132.91;;;30.28;42.74
250;BME280;109;19.806;-70.704;2023-09-19T07:08:25;101141.06;;;30.28;42.81
250;BME280;109;19.806;-70.704;2023-09-19T07:10:58;101146.78;;;30.25;42.96
250;BME280;109;19.806;-70.704;2023-09-19T07:13:25;101147.53;;;30.27;43.07
250;BME280;109;19.806;-70.704;2023-09-19T07:15:59;101138.63;;;30.34;42.87
250;BME280;109;19.806;-70.704;2023-09-19T07:18:25;101146.22;;;30.31;42.38
250;BME280;109;19.806;-70.704;2023-09-19T07:20:58;101140.75;;;30.31;42.69
250;BME280;109;19.806;-70.704;2023-09-19T07:23:37;101140.34;;;30.35;42.56
250;BME280;109;19.806;-70.704;2023-09-19T07:26:04;101141.63;;;30.31;42.51
250;BME280;109;19.806;-70.704;2023-09-19T07:28:37;101148.38;;;30.27;42.28
250;BME280;109;19.806;-70.704;2023-09-19T07:31:03;101140.19;;;30.18;42.76
250;BME280;109;19.806;-70.704;2023-09-19T07:33:37;101139.63;;;30.24;42.16
250;BME280;109;19.806;-70.704;2023-09-19T07:36:04;101134.06;;;30.16;42.57
250;BME280;109;19.806;-70.704;2023-09-19T07:38:37;101144.50;;;30.20;42.26
250;BME280;109;19.806;-70.704;2023-09-19T07:41:04;101145.34;;;30.21;42.58
250;BME280;109;19.806;-70.704;2023-09-19T07:43:37;101146.63;;;30.17;42.42
250;BME280;109;19.806;-70.704;2023-09-19T07:46:17;101145.09;;;30.14;42.58
250;BME280;109;19.806;-70.704;2023-09-19T07:48:44;101143.03;;;30.07;42.63
250;BME280;109;19.806;-70.704;2023-09-19T07:51:21;101141.78;;;30.20;42.29
250;BME280;109;19.806;-70.704;2023-09-19T07:53:48;101134.44;;;30.11;42.36
250;BME280;109;19.806;-70.704;2023-09-19T07:56:28;101142.91;;;30.18;42.38
250;BME280;109;19.806;-70.704;2023-09-19T07:59:02;101156.53;;;30.18;42.43
250;BME280;109;19.806;-70.704;2023-09-19T08:01:28;101139.66;;;30.14;42.16
250;BME280;109;19.806;-70.704;2023-09-19T08:04:01;101145.09;;;30.14;42.32
250;BME280;109;19.806;-70.704;2023-09-19T08:06:28;101138.19;;;30.20;42.28
250;BME280;109;19.806;-70.704;2023-09-19T08:09:02;101134.75;;;29.98;42.51
250;BME280;109;19.806;-70.704;2023-09-19T08:11:40;101121.53;;;30.03;42.48
250;BME280;109;19.806;-70.704;2023-09-19T08:14:06;101124.72;;;30.09;42.29
250;BME280;109;19.806;-70.704;2023-09-19T08:16:41;101131.59;;;30.13;41.94
250;BME280;109;19.806;-70.704;2023-09-19T08:19:09;101135.59;;;30.09;41.79
250;BME280;109;19.806;-70.704;2023-09-19T08:21:43;101129.44;;;30.07;41.87
250;BME280;109;19.806;-70.704;2023-09-19T08:24:13;101138.03;;;30.12;42.18
250;BME280;109;19.806;-70.704;2023-09-19T08:26:47;101128.00;;;30.12;41.75
250;BME280;109;19.806;-70.704;2023-09-19T08:29:14;101132.34;;;30.15;41.73
250;BME280;109;19.806;-70.704;2023-09-19T08:31:47;101122.72;;;30.01;42.01
250;BME280;109;19.806;-70.704;2023-09-19T08:34:15;101125.72;;;30.08;41.48
250;BME280;109;19.806;-70.704;2023-09-19T08:36:50;101124.13;;;30.05;41.52
250;BME280;109;19.806;-70.704;2023-09-19T08:39:16;101122.72;;;30.11;41.34
250;BME280;109;19.806;-70.704;2023-09-19T08:41:57;101118.69;;;30.05;41.47
250;BME280;109;19.806;-70.704;2023-09-19T08:44:36;101113.56;;;30.02;41.67
250;BME280;109;19.806;-70.704;2023-09-19T08:47:34;101117.81;;;30.04;41.27
250;BME280;109;19.806;-70.704;2023-09-19T08:50:19;101110.13;;;30.00;41.30
250;BME280;109;19.806;-70.704;2023-09-19T08:52:56;101111.81;;;29.91;41.69
250;BME280;109;19.806;-70.704;2023-09-19T08:55:34;101119.09;;;29.91;41.59
250;BME280;109;19.806;-70.704;2023-09-19T08:58:04;101117.25;;;29.91;41.22
250;BME280;109;19.806;-70.704;2023-09-19T09:00:39;101122.56;;;29.93;40.96
250;BME280;109;19.806;-70.704;2023-09-19T09:03:18;101122.13;;;29.97;41.04
250;BME280;109;19.806;-70.704;2023-09-19T09:05:53;101126.41;;;29.90;41.39
250;BME280;109;19.806;-70.704;2023-09-19T09:08:21;101125.59;;;29.90;41.04
250;BME280;109;19.806;-70.704;2023-09-19T09:10:54;101122.00;;;29.89;41.35
250;BME280;109;19.806;-70.704;2023-09-19T09:13:21;101119.56;;;29.86;41.38
250;BME280;109;19.806;-70.704;2023-09-19T09:15:57;101125.84;;;29.87;41.41
250;BME280;109;19.806;-70.704;2023-09-19T09:21:14;101126.13;;;29.84;41.25
250;BME280;109;19.806;-70.704;2023-09-19T09:24:26;101122.28;;;29.77;41.13
250;BME280;109;19.806;-70.704;2023-09-19T09:27:04;101124.72;;;29.89;41.13
250;BME280;109;19.806;-70.704;2023-09-19T09:29:43;101111.53;;;29.94;41.10
250;BME280;109;19.806;-70.704;2023-09-19T09:32:29;101108.41;;;29.89;40.99
250;BME280;109;19.806;-70.704;2023-09-19T09:35:10;101106.38;;;29.91;41.15
250;BME280;109;19.806;-70.704;2023-09-19T09:37:43;101114.25;;;29.75;41.44
250;BME280;109;19.806;-70.704;2023-09-19T09:40:20;101121.75;;;29.52;41.70
250;BME280;109;19.806;-70.704;2023-09-19T09:43:34;101116.31;;;29.52;41.63
250;BME280;109;19.806;-70.704;2023-09-19T09:46:19;101119.22;;;29.60;41.47
250;BME280;109;19.806;-70.704;2023-09-19T09:51:50;101118.22;;;29.61;41.71
250;BME280;109;19.806;-70.704;2023-09-19T09:54:29;101116.78;;;29.67;41.91
250;BME280;109;19.806;-70.704;2023-09-19T09:57:13;101117.25;;;29.72;41.63
250;BME280;109;19.806;-70.704;2023-09-19T10:00:00;101123.78;;;29.69;41.57
250;BME280;109;19.806;-70.704;2023-09-19T10:02:52;101129.13;;;29.71;41.59
250;BME280;109;19.806;-70.704;2023-09-19T10:05:20;101126.66;;;29.68;41.61
250;BME280;109;19.806;-70.704;2023-09-19T10:07:55;101120.69;;;29.74;41.66
250;BME280;109;19.806;-70.704;2023-09-19T10:10:41;101134.66;;;29.69;41.58
250;BME280;109;19.806;-70.704;2023-09-19T10:13:09;101135.28;;;29.73;41.52
250;BME280;109;19.806;-70.704;2023-09-19T10:15:51;101138.88;;;29.83;41.56
250;BME280;109;19.806;-70.704;2023-09-19T10:18:27;101135.88;;;29.86;41.33
250;BME280;109;19.806;-70.704;2023-09-19T10:20:56;101135.59;;;29.89;41.39
250;BME280;109;19.806;-70.704;2023-09-19T10:23:38;101137.44;;;29.79;41.41
250;BME280;109;19.806;-70.704;2023-09-19T10:26:17;101139.19;;;29.90;41.32
250;BME280;109;19.806;-70.704;2023-09-19T10:28:47;101138.75;;;29.85;41.84
250;BME280;109;19.806;-70.704;2023-09-19T10:31:23;101146.44;;;29.80;41.62
250;BME280;109;19.806;-70.704;2023-09-19T10:33:51;101151.34;;;29.76;41.65
250;BME280;109;19.806;-70.704;2023-09-19T10:36:26;101155.69;;;29.67;41.71
250;BME280;109;19.806;-70.704;2023-09-19T10:39:03;101155.84;;;29.66;41.70
250;BME280;109;19.806;-70.704;2023-09-19T10:41:41;101157.63;;;29.77;41.58
250;BME280;109;19.806;-70.704;2023-09-19T10:44:10;101161.91;;;29.79;41.63
250;BME280;109;19.806;-70.704;2023-09-19T10:46:43;101157.06;;;29.73;41.69
250;BME280;109;19.806;-70.704;2023-09-19T10:49:11;101155.66;;;29.88;41.40
250;BME280;109;19.806;-70.704;2023-09-19T10:51:43;101159.50;;;29.86;41.53
250;BME280;109;19.806;-70.704;2023-09-19T10:54:13;101159.38;;;29.87;41.68
250;BME280;109;19.806;-70.704;2023-09-19T10:56:46;101175.97;;;29.94;41.55
250;BME280;109;19.806;-70.704;2023-09-19T10:59:15;101170.53;;;30.03;41.38
250;BME280;109;19.806;-70.704;2023-09-19T11:01:50;101182.03;;;30.17;41.24
250;BME280;109;19.806;-70.704;2023-09-19T11:04:29;101184.56;;;30.09;41.77
250;BME280;109;19.806;-70.704;2023-09-19T11:07:09;101183.47;;;30.21;41.46
250;BME280;109;19.806;-70.704;2023-09-19T11:15:08;101202.66;;;30.58;40.87
250;BME280;109;19.806;-70.704;2023-09-19T11:17:38;101194.19;;;30.51;40.25
250;BME280;109;19.806;-70.704;2023-09-19T11:30:49;101223.44;;;30.78;40.06
250;BME280;109;19.806;-70.704;2023-09-19T11:33:28;101211.50;;;30.89;40.08
250;BME280;109;19.806;-70.704;2023-09-19T11:36:12;101223.47;;;31.25;39.61
250;BME280;109;19.806;-70.704;2023-09-19T11:43:52;101223.03;;;31.39;39.52
250;BME280;109;19.806;-70.704;2023-09-19T11:49:31;101229.00;;;31.52;39.55
250;BME280;109;19.806;-70.704;2023-09-19T11:52:02;101226.44;;;31.78;39.14
250;BME280;109;19.806;-70.704;2023-09-19T11:54:32;101227.94;;;31.90;38.92
250;BME280;109;19.806;-70.704;2023-09-19T11:57:00;101234.31;;;32.08;38.63
250;BME280;109;19.806;-70.704;2023-09-19T11:59:31;101228.00;;;32.26;38.23
250;BME280;109;19.806;-70.704;2023-09-19T12:02:06;101224.03;;;32.20;38.19
250;BME280;109;19.806;-70.704;2023-09-19T12:04:39;101223.03;;;32.21;38.01
250;BME280;109;19.806;-70.704;2023-09-19T12:07:11;101232.41;;;32.36;37.64
250;BME280;109;19.806;-70.704;2023-09-19T12:09:42;101227.81;;;32.80;37.50
250;BME280;109;19.806;-70.704;2023-09-19T12:14:50;101229.91;;;32.61;37.66
250;BME280;109;19.806;-70.704;2023-09-19T12:17:20;101229.94;;;32.51;37.44
250;BME280;109;19.806;-70.704;2023-09-19T12:19:55;101229.41;;;32.65;36.96
250;BME280;109;19.806;-70.704;2023-09-19T12:22:22;101232.09;;;32.22;37.19
250;BME280;109;19.806;-70.704;2023-09-19T12:24:48;101238.00;;;32.35;37.39
250;BME280;109;19.806;-70.704;2023-09-19T12:27:16;101238.84;;;32.53;37.81
250;BME280;109;19.806;-70.704;2023-09-19T12:29:45;101233.47;;;32.43;37.69
250;BME280;109;19.806;-70.704;2023-09-19T12:32:12;101237.06;;;31.81;38.52
250;BME280;109;19.806;-70.704;2023-09-19T12:34:39;101243.53;;;31.43;39.15
250;BME280;109;19.806;-70.704;2023-09-19T12:37:14;101239.66;;;32.00;38.54
250;BME280;109;19.806;-70.704;2023-09-19T12:39:49;101246.81;;;32.29;38.65
250;BME280;109;19.806;-70.704;2023-09-19T12:42:19;101249.84;;;32.26;38.29
250;BME280;109;19.806;-70.704;2023-09-19T12:44:48;101253.94;;;32.12;38.63
250;BME280;109;19.806;-70.704;2023-09-19T12:47:18;101252.41;;;32.09;38.53
250;BME280;109;19.806;-70.704;2023-09-19T12:50:08;101261.75;;;32.07;38.44
250;BME280;109;19.806;-70.704;2023-09-19T12:52:47;101262.66;;;32.43;38.59
250;BME280;109;19.806;-70.704;2023-09-19T12:55:35;101264.78;;;32.49;38.38
250;BME280;109;19.806;-70.704;2023-09-19T13:00:39;101268.56;;;32.38;38.67
250;BME280;109;19.806;-70.704;2023-09-19T13:03:18;101264.13;;;32.55;38.13
250;BME280;109;19.806;-70.704;2023-09-19T13:05:49;101274.03;;;32.56;38.31
250;BME280;109;19.806;-70.704;2023-09-19T13:08:40;101272.97;;;32.67;37.35
250;BME280;109;19.806;-70.704;2023-09-19T13:11:17;101275.84;;;32.65;37.31
250;BME280;109;19.806;-70.704;2023-09-19T13:14:18;101269.38;;;32.66;37.83
250;BME280;109;19.806;-70.704;2023-09-19T13:17:03;101282.97;;;32.58;38.46
250;BME280;109;19.806;-70.704;2023-09-19T13:19:40;101276.84;;;32.82;38.03
250;BME280;109;19.806;-70.704;2023-09-19T13:22:40;101283.19;;;32.82;38.01
250;BME280;109;19.806;-70.704;2023-09-19T13:25:16;101289.81;;;32.98;38.19
250;BME280;109;19.806;-70.704;2023-09-19T13:27:50;101290.25;;;33.11;38.10
250;BME280;109;19.806;-70.704;2023-09-19T13:30:25;101295.72;;;32.93;38.21
250;BME280;109;19.806;-70.704;2023-09-19T13:33:03;101301.63;;;33.24;38.36
250;BME280;109;19.806;-70.704;2023-09-19T13:35:31;101305.38;;;33.23;38.16
250;BME280;109;19.806;-70.704;2023-09-19T13:37:58;101300.94;;;33.22;38.66
250;BME280;109;19.806;-70.704;2023-09-19T13:40:25;101304.94;;;32.92;38.74
250;BME280;109;19.806;-70.704;2023-09-19T13:42:56;101301.34;;;32.92;39.05
250;BME280;109;19.806;-70.704;2023-09-19T13:45:23;101299.47;;;32.92;38.65
250;BME280;109;19.806;-70.704;2023-09-19T13:47:50;101304.41;;;32.89;38.60
250;BME280;109;19.806;-70.704;2023-09-19T13:50:17;101302.72;;;32.88;39.14
250;BME280;109;19.806;-70.704;2023-09-19T13:53:00;101305.38;;;33.23;38.11
250;BME280;109;19.806;-70.704;2023-09-19T13:55:32;101309.56;;;33.09;38.41
250;BME280;109;19.806;-70.704;2023-09-19T13:57:59;101311.91;;;33.04;38.33
250;BME280;109;19.806;-70.704;2023-09-19T14:00:26;101309.50;;;32.83;38.66
250;BME280;109;19.806;-70.704;2023-09-19T14:02:53;101301.16;;;32.67;38.77
250;BME280;109;19.806;-70.704;2023-09-19T14:05:20;101308.63;;;32.65;38.20
250;BME280;109;19.806;-70.704;2023-09-19T14:07:47;101308.13;;;32.52;39.23
250;BME280;109;19.806;-70.704;2023-09-19T14:10:13;101303.63;;;32.43;39.17
250;BME280;109;19.806;-70.704;2023-09-19T14:12:41;101304.56;;;32.34;39.42
250;BME280;109;19.806;-70.704;2023-09-19T14:15:12;101310.69;;;32.18;39.93
250;BME280;109;19.806;-70.704;2023-09-19T14:17:40;101306.31;;;32.25;40.60
250;BME280;109;19.806;-70.704;2023-09-19T14:20:12;101302.22;;;32.11;40.34
250;BME280;109;19.806;-70.704;2023-09-19T14:22:41;101307.28;;;32.06;41.04
250;BME280;109;19.806;-70.704;2023-09-19T14:25:16;101306.34;;;32.16;40.57
250;BME280;109;19.806;-70.704;2023-09-19T14:27:43;101299.63;;;31.92;41.40
250;BME280;109;19.806;-70.704;2023-09-19T14:30:33;101304.94;;;32.11;41.21
250;BME280;109;19.806;-70.704;2023-09-19T17:46:58;101142.34;;;33.72;40.49